Bonilla, South Dakota
Current Conditions -  °F | °C
As of 3:55 PM on Sunday 28 Dec 2014 (Local Time) from KHON Reporting Station
Haze Haze  
Wind Chill:   Ceiling: 900
Heat Index: 19°   Visibility: 6mi
Dew Point: 15°   Wind: 13mph
Humidity: 85%   Direction: 60°ENE
Pressure: 30.17"   Gusts: NA
Location:  44.5719°N, 98.4744°W
Report Text: KHON 282155Z AUTO 06011KT 6SM BR OVC009 M07/M09 A3017 RMK AO2 SLP247 T10721094
Loading
Personal Weather Stations






























Interactive Weather Map New forecast layout! Learn more

10-Day Weather Forecast

Advertisements
Track Severe Weather on mobile